»·PEaware :: DAL36 KLAS-KSAN

DAL36 :: KLAS-KSAN

FLIGHT INFORMATION

Flight Status: Arrived
Operator:
Delta Air Lines
More flights by this operator :: More flights under this callsign
Pilot: Matthew M. (8235)
Aircraft: Unknown
(A359)
More flights by this aircraft type
Origin: KLAS McCarran Intl
United States
Destination: KSAN San Diego Intl-Lindbergh
United States
More flights between these airports :: More routes between these airports
Route: BOACH8 LVELL LUCKI1
File this flight plan on PilotEdge
Remarks:
Altitude:
(Current/Filed)
32,000ft
Speed:
(Current/Filed)
476kts
Departed: 22-Jul-20 02:52 PM
Arrived: 22-Jul-20 03:37 PM
Distance/Time
Traveled:
225nm/0:44
Distance/Time
To Go:
Arrived

Flight Plot

Page will automatically refresh every two minutes.

Flight plan parsing failed; only flown route is shown


Map Options




Map Legend


Flown Route
Filed Route
Departure Airport
Arrival Airport
Navaid (VOR, NDB)
Fix

Horizontal Profiles

Position Reports

Time Latitude Longitude Heading Altitude Ground
Speed
22-Jul-20 14:29 36.079789 -115.135269 352 2068ft 0kts
22-Jul-20 14:30 36.079789 -115.135269 352 2068ft 0kts
22-Jul-20 14:31 36.079790 -115.135269 352 2068ft 0kts
22-Jul-20 14:32 36.079790 -115.135269 352 2068ft 0kts
22-Jul-20 14:33 36.079790 -115.135269 352 2068ft 0kts
22-Jul-20 14:34 36.079790 -115.135269 352 2068ft 0kts
22-Jul-20 14:35 36.079790 -115.135269 352 2068ft 0kts
22-Jul-20 14:36 36.079790 -115.135269 352 2068ft 0kts
22-Jul-20 14:37 36.079790 -115.135269 352 2068ft 0kts
22-Jul-20 14:38 36.079790 -115.135269 352 2068ft 0kts
22-Jul-20 14:39 36.079790 -115.135269 352 2068ft 0kts
22-Jul-20 14:40 36.079790 -115.135269 352 2068ft 0kts
22-Jul-20 14:41 36.079790 -115.135269 352 2068ft 0kts
22-Jul-20 14:42 36.079718 -115.135257 352 2068ft 0kts
22-Jul-20 14:43 36.078338 -115.136239 245 2072ft 21kts
22-Jul-20 14:44 36.078355 -115.144598 272 2099ft 18kts
22-Jul-20 14:45 36.078725 -115.150325 274 2119ft 14kts
22-Jul-20 14:46 36.082137 -115.155248 334 2128ft 35kts
22-Jul-20 14:47 36.089383 -115.156458 24 2115ft 26kts
22-Jul-20 14:48 36.095607 -115.153033 24 2090ft 24kts
22-Jul-20 14:49 36.097957 -115.152413 305 2084ft 0kts
22-Jul-20 14:50 36.096417 -115.154754 204 2094ft 28kts
22-Jul-20 14:51 36.067280 -115.171624 202 2811ft 156kts
22-Jul-20 14:52 36.028889 -115.193878 204 4744ft 169kts
22-Jul-20 14:53 35.994895 -115.247800 238 5911ft 246kts
22-Jul-20 14:54 35.943837 -115.305870 186 8191ft 274kts
22-Jul-20 14:55 35.866743 -115.313654 182 10636ft 293kts
22-Jul-20 14:56 35.777392 -115.306268 175 11783ft 350kts
22-Jul-20 14:57 35.673555 -115.295900 179 13054ft 393kts
22-Jul-20 14:58 35.562505 -115.299415 182 15342ft 404kts
22-Jul-20 14:59 35.448779 -115.303858 182 17507ft 416kts
22-Jul-20 15:00 35.331474 -115.308432 183 19570ft 427kts
22-Jul-20 15:01 35.211394 -115.313148 183 21554ft 438kts
22-Jul-20 15:02 35.087746 -115.318020 183 23493ft 450kts
22-Jul-20 15:03 34.964939 -115.322809 184 26664ft 431kts
22-Jul-20 15:04 34.846305 -115.327650 186 28598ft 439kts
22-Jul-20 15:05 34.728567 -115.354025 201 31098ft 424kts
22-Jul-20 15:06 34.616593 -115.402888 203 31828ft 433kts
22-Jul-20 15:08 34.503295 -115.452435 203 31889ft 433kts
22-Jul-20 15:09 34.389610 -115.501978 203 31917ft 433kts
22-Jul-20 15:10 34.281117 -115.562640 213 31924ft 431kts
22-Jul-20 15:11 34.175326 -115.631151 205 31923ft 434kts
22-Jul-20 15:12 34.065625 -115.683509 204 31923ft 422kts
22-Jul-20 15:13 33.958642 -115.734105 204 31882ft 420kts
22-Jul-20 15:14 33.851168 -115.785880 204 31440ft 420kts
22-Jul-20 15:15 33.744610 -115.837808 203 28043ft 438kts
22-Jul-20 15:16 33.629796 -115.891309 202 24962ft 436kts
22-Jul-20 15:17 33.522652 -115.946857 217 23749ft 397kts
22-Jul-20 15:18 33.457283 -116.043965 234 22567ft 365kts
22-Jul-20 15:19 33.401063 -116.141351 234 20990ft 349kts
22-Jul-20 15:20 33.345277 -116.234973 226 19148ft 342kts
22-Jul-20 15:21 33.266054 -116.292404 206 17504ft 332kts
22-Jul-20 15:22 33.183715 -116.340392 206 15830ft 324kts
22-Jul-20 15:23 33.104045 -116.386988 206 14284ft 315kts
22-Jul-20 15:24 33.026087 -116.432523 206 12616ft 311kts
22-Jul-20 15:24 32.967495 -116.482670 218 11232ft 311kts
22-Jul-20 15:25 32.902980 -116.548012 219 10029ft 293kts
22-Jul-20 15:27 32.834130 -116.617125 219 8938ft 274kts
22-Jul-20 15:27 32.785911 -116.665786 221 7965ft 269kts
22-Jul-20 15:28 32.745930 -116.737009 239 7256ft 254kts
22-Jul-20 15:29 32.713992 -116.804756 239 6059ft 221kts
22-Jul-20 15:30 32.690362 -116.873265 248 5176ft 232kts
22-Jul-20 15:31 32.673682 -116.948144 283 3805ft 247kts
22-Jul-20 15:32 32.693072 -117.023091 284 2998ft 238kts
22-Jul-20 15:33 32.710021 -117.092483 284 1788ft 199kts
22-Jul-20 15:34 32.723657 -117.148446 283 705ft 151kts
22-Jul-20 15:35 32.734012 -117.191685 287 30ft 111kts
22-Jul-20 15:36 32.736453 -117.204093 193 26ft 1kts
22-Jul-20 15:37 32.735594 -117.206551 219 26ft 14kts
22-Jul-20 15:38 32.732652 -117.207082 191 29ft 1kts

Navigation Log

Ident Type
Flight plan parsing failed, navigation log unavailable